Time;durP1;ratioP1;P1;durP2;ratioP2;P2;SDS_P1;SDS_P2;PMS_P1;PMS_P2;Temp;Humidity;BMP_temperature;BMP_pressure;BME280_temperature;BME280_humidity;BME280_pressure;Samples;Min_cycle;Max_cycle;Signal;HPM_P1;HPM_P2
2023/10/28 00:00:04;;;;;;;7.05;5.25;;;;;;;12.38;nan;98402.09;4918081;28;101560;-77
2023/10/28 00:02:30;;;;;;;9.45;5.45;;;;;;;12.37;nan;98397.78;4934348;28;97969;-76
2023/10/28 00:04:55;;;;;;;7.07;4.85;;;;;;;12.33;nan;98391.06;4918522;28;96575;-76
2023/10/28 00:07:21;;;;;;;5.00;3.97;;;;;;;12.24;nan;98387.28;4934249;28;96826;-77
2023/10/28 00:09:46;;;;;;;6.55;3.97;;;;;;;12.30;nan;98393.91;4917951;28;101542;-76
2023/10/28 00:12:14;;;;;;;4.30;3.88;;;;;;;12.36;nan;98402.22;4917918;28;101206;-78
2023/10/28 00:14:40;;;;;;;5.20;4.35;;;;;;;12.35;nan;98402.31;4934629;28;96743;-79
2023/10/28 00:17:06;;;;;;;5.57;3.88;;;;;;;12.38;nan;98402.94;4918085;28;96838;-77
2023/10/28 00:19:32;;;;;;;5.43;4.10;;;;;;;12.36;nan;98399.59;4933535;28;100445;-76
2023/10/28 00:21:57;;;;;;;5.45;4.18;;;;;;;12.29;nan;98386.97;4917894;28;99432;-77
2023/10/28 00:24:23;;;;;;;4.95;4.13;;;;;;;12.37;nan;98405.69;4918409;28;96577;-78
2023/10/28 00:26:48;;;;;;;17.52;5.30;;;;;;;12.35;nan;98397.88;4918154;28;96824;-76
2023/10/28 00:29:14;;;;;;;4.53;4.05;;;;;;;12.31;nan;98398.22;4917735;28;101531;-77
2023/10/28 00:31:40;;;;;;;6.88;4.47;;;;;;;12.34;nan;98401.47;4933932;28;97659;-78
2023/10/28 00:34:06;;;;;;;6.10;4.65;;;;;;;12.36;nan;98404.84;4918055;28;96670;-77
2023/10/28 00:36:31;;;;;;;6.97;4.60;;;;;;;12.37;nan;98416.22;4918649;28;96868;-76
2023/10/28 00:38:57;;;;;;;6.47;4.20;;;;;;;12.31;nan;98414.84;4917695;28;101529;-76
2023/10/28 00:41:22;;;;;;;8.63;5.30;;;;;;;12.25;nan;98399.50;4933927;28;97888;-76
2023/10/28 00:43:48;;;;;;;6.18;4.68;;;;;;;12.34;nan;98413.81;4917902;28;96529;-77
2023/10/28 00:46:14;;;;;;;14.52;5.13;;;;;;;12.32;nan;98407.78;4940835;28;96597;-76
2023/10/28 00:48:40;;;;;;;6.93;5.10;;;;;;;12.30;nan;98407.88;4940342;28;101191;-76
2023/10/28 00:51:07;;;;;;;8.32;5.38;;;;;;;12.33;nan;98412.94;4924826;28;96613;-80
2023/10/28 00:53:33;;;;;;;11.30;6.15;;;;;;;12.36;nan;98425.03;4924347;28;96602;-76
2023/10/28 00:56:00;;;;;;;8.60;5.05;;;;;;;12.37;nan;98421.47;4940512;28;96861;-77
2023/10/28 00:58:26;;;;;;;8.82;5.35;;;;;;;12.25;nan;98404.78;4940112;28;101518;-77
2023/10/28 01:00:52;;;;;;;5.95;4.78;;;;;;;12.36;nan;98418.00;4940245;28;101791;-76
2023/10/28 01:03:18;;;;;;;9.32;4.85;;;;;;;12.33;nan;98404.19;4924036;28;96578;-76
2023/10/28 01:05:45;;;;;;;6.95;5.28;;;;;;;12.21;nan;98390.97;4940591;28;96792;-76
2023/10/28 01:08:10;;;;;;;8.30;5.43;;;;;;;12.35;nan;98418.94;4939500;28;101627;-77
2023/10/28 01:10:37;;;;;;;8.15;5.20;;;;;;;12.14;nan;98389.75;4940095;28;97459;-76
2023/10/28 01:13:06;;;;;;;7.45;4.63;;;;;;;12.05;nan;98382.50;4956770;28;96644;-76
2023/10/28 01:15:31;;;;;;;7.63;5.75;;;;;;;12.24;nan;98426.75;4940165;28;96692;-78
2023/10/28 01:17:57;;;;;;;8.35;6.03;;;;;;;12.27;nan;98438.84;4956115;28;101208;-76
2023/10/28 01:20:22;;;;;;;10.98;6.53;;;;;;;12.23;nan;98440.84;4940022;28;98149;-76
2023/10/28 01:22:48;;;;;;;10.50;6.30;;;;;;;12.24;nan;98453.06;4923852;28;96651;-76
2023/10/28 01:25:14;;;;;;;7.00;5.00;;;;;;;12.22;nan;98457.59;4940250;28;96960;-76
2023/10/28 01:27:39;;;;;;;6.88;5.63;;;;;;;12.11;nan;98444.34;4939568;28;101433;-75
2023/10/28 01:30:06;;;;;;;8.07;5.75;;;;;;;12.00;nan;98426.69;4923575;28;101512;-76
2023/10/28 01:32:31;;;;;;;8.65;5.25;;;;;;;12.19;nan;98452.56;4939294;28;96679;-81
2023/10/28 01:34:58;;;;;;;7.93;5.22;;;;;;;11.99;nan;98425.84;4939754;28;96863;-77
2023/10/28 01:37:23;;;;;;;6.30;4.88;;;;;;;12.13;nan;98450.31;4955770;28;101817;-77
2023/10/28 01:39:51;;;;;;;5.78;5.10;;;;;;;12.06;nan;98457.81;4906941;28;101141;-78
2023/10/28 01:42:18;;;;;;;6.45;5.13;;;;;;;11.84;nan;98449.69;4939569;28;96640;-76
2023/10/28 01:44:45;;;;;;;10.30;5.60;;;;;;;11.87;nan;98463.50;4939041;28;96892;-76
2023/10/28 01:47:11;;;;;;;6.63;5.47;;;;;;;11.91;nan;98459.72;4939363;28;101257;-77
2023/10/28 01:49:39;;;;;;;7.90;5.63;;;;;;;11.78;nan;98438.66;4923572;28;101423;-76
2023/10/28 01:52:08;;;;;;;12.27;5.97;;;;;;;11.95;nan;98453.28;4939845;28;96651;-76
2023/10/28 01:54:35;;;;;;;7.63;6.13;;;;;;;11.95;nan;98461.19;4939373;28;96864;-77
2023/10/28 01:57:05;;;;;;;6.63;5.90;;;;;;;11.93;nan;98454.38;4937538;28;100923;-77
2023/10/28 01:59:35;;;;;;;7.72;6.10;;;;;;;11.73;nan;98439.94;4922908;28;101818;-77
2023/10/28 02:02:02;;;;;;;9.63;6.28;;;;;;;11.91;nan;98458.88;4939231;28;96637;-77
2023/10/28 02:04:31;;;;;;;9.68;6.88;;;;;;;11.90;nan;98457.22;4939501;28;96806;-76
2023/10/28 02:06:58;;;;;;;9.75;5.82;;;;;;;11.93;nan;98463.09;4939096;28;101811;-77
2023/10/28 02:09:26;;;;;;;10.90;7.05;;;;;;;11.86;nan;98439.94;4923015;28;101600;-76
2023/10/28 02:11:52;;;;;;;11.48;7.03;;;;;;;11.99;nan;98472.34;4939217;28;96749;-78
2023/10/28 02:14:18;;;;;;;13.10;7.10;;;;;;;11.89;nan;98472.13;4939598;28;96837;-76
2023/10/28 02:16:44;;;;;;;8.98;7.20;;;;;;;11.95;nan;98469.06;4922755;28;101474;-77
2023/10/28 02:19:10;;;;;;;11.95;6.70;;;;;;;11.92;nan;98469.28;4906977;28;101372;-76
2023/10/28 02:21:35;;;;;;;12.35;7.05;;;;;;;12.00;nan;98480.13;4938932;28;96581;-76
2023/10/28 02:24:03;;;;;;;14.25;7.63;;;;;;;12.01;nan;98480.94;4938992;28;96831;-79
2023/10/28 02:26:29;;;;;;;10.77;7.72;;;;;;;12.04;nan;98482.53;4938720;28;99314;-76
2023/10/28 02:28:55;;;;;;;10.07;6.75;;;;;;;11.86;nan;98447.84;4955457;28;97950;-76
2023/10/28 02:31:20;;;;;;;7.20;6.13;;;;;;;12.02;nan;98472.13;4938933;28;96615;-76
2023/10/28 02:33:45;;;;;;;9.20;6.60;;;;;;;11.98;nan;98463.63;4939377;28;96675;-76
2023/10/28 02:36:11;;;;;;;10.20;7.30;;;;;;;12.00;nan;98474.84;4938964;28;98285;-78
2023/10/28 02:38:37;;;;;;;8.25;7.00;;;;;;;12.05;nan;98484.22;4922843;28;101385;-77
2023/10/28 02:41:06;;;;;;;9.07;6.78;;;;;;;11.85;nan;98473.28;4922829;28;96555;-78
2023/10/28 02:43:36;;;;;;;15.95;7.38;;;;;;;11.77;nan;98483.44;4922749;28;96765;-77
2023/10/28 02:46:03;;;;;;;29.95;9.68;;;;;;;11.83;nan;98477.78;4937605;28;101455;-77
2023/10/28 02:48:29;;;;;;;8.20;6.10;;;;;;;11.88;nan;98478.34;4938524;28;100781;-76
2023/10/28 02:51:04;;;;;;;11.32;6.40;;;;;;;11.63;nan;98460.72;4955343;28;96547;-78
2023/10/28 02:53:30;;;;;;;7.72;6.07;;;;;;;11.76;nan;98487.03;4938586;28;96751;-76
2023/10/28 02:55:56;;;;;;;8.43;6.25;;;;;;;11.84;nan;98481.22;4938192;28;101821;-76
2023/10/28 02:58:22;;;;;;;10.65;6.65;;;;;;;11.78;nan;98482.53;4938205;28;100911;-77
2023/10/28 03:00:48;;;;;;;10.45;7.53;;;;;;;11.71;nan;98463.69;4938344;28;96603;-77
2023/10/28 03:03:14;;;;;;;8.38;6.55;;;;;;;11.83;nan;98490.91;4956577;28;96853;-77
2023/10/28 03:05:39;;;;;;;7.18;5.45;;;;;;;11.74;nan;98473.16;4938164;28;97515;-76
2023/10/28 03:08:05;;;;;;;7.85;6.53;;;;;;;11.91;nan;98483.38;4937929;28;101306;-77
2023/10/28 03:10:31;;;;;;;11.30;6.22;;;;;;;12.00;nan;98495.06;4938078;28;96689;-79
2023/10/28 03:12:56;;;;;;;6.45;5.40;;;;;;;11.84;nan;98462.84;4938380;28;96564;-78
2023/10/28 03:15:22;;;;;;;6.93;5.70;;;;;;;11.67;nan;98485.88;4937867;28;98886;-77
2023/10/28 03:17:48;;;;;;;8.77;5.65;;;;;;;11.60;nan;98470.59;4937968;28;101316;-76
2023/10/28 03:20:19;;;;;;;7.88;5.38;;;;;;;11.62;nan;98482.69;4922257;28;96590;-76
2023/10/28 03:22:44;;;;;;;7.75;5.35;;;;;;;11.69;nan;98485.75;4938592;28;96602;-76
2023/10/28 03:25:10;;;;;;;6.35;5.20;;;;;;;11.67;nan;98475.34;4922171;28;97419;-76
2023/10/28 03:27:35;;;;;;;8.65;4.80;;;;;;;11.69;nan;98483.13;4938207;28;101524;-76
2023/10/28 03:30:01;;;;;;;8.23;5.65;;;;;;;11.74;nan;98481.88;4938207;28;96550;-77
2023/10/28 03:32:26;;;;;;;9.43;5.90;;;;;;;11.62;nan;98476.59;4937905;28;96962;-76
2023/10/28 03:34:52;;;;;;;11.93;6.85;;;;;;;11.68;nan;98474.41;4921253;28;101065;-77
2023/10/28 03:37:18;;;;;;;11.70;5.22;;;;;;;11.78;nan;98488.63;4937398;28;100899;-77
2023/10/28 03:39:44;;;;;;;5.78;4.95;;;;;;;11.87;nan;98489.81;4937995;28;96647;-77
2023/10/28 03:42:11;;;;;;;9.88;5.25;;;;;;;11.92;nan;98495.56;4937799;28;96899;-78
2023/10/28 03:44:36;;;;;;;6.55;3.80;;;;;;;11.95;nan;98495.34;4936852;28;100278;-76
2023/10/28 03:47:04;;;;;;;8.35;4.82;;;;;;;11.98;nan;98487.28;4937434;28;101326;-77
2023/10/28 03:49:30;;;;;;;9.75;5.40;;;;;;;11.94;nan;98480.53;4937836;28;96630;-77
2023/10/28 03:51:56;;;;;;;12.35;4.53;;;;;;;11.86;nan;98463.59;4938053;28;96845;-76
2023/10/28 03:54:21;;;;;;;9.75;5.55;;;;;;;12.08;nan;98497.16;4953827;28;97626;-76
2023/10/28 03:56:47;;;;;;;8.77;4.90;;;;;;;12.09;nan;98496.22;4937385;28;101590;-80
2023/10/28 03:59:13;;;;;;;7.05;4.95;;;;;;;12.15;nan;98501.88;4921097;28;96632;-79
2023/10/28 04:01:40;;;;;;;7.93;4.65;;;;;;;12.12;nan;98494.19;4937399;28;96854;-77
2023/10/28 04:04:07;;;;;;;7.10;4.93;;;;;;;12.06;nan;98494.63;4937051;28;102013;-77
2023/10/28 04:06:32;;;;;;;6.57;4.30;;;;;;;12.10;nan;98487.38;4937449;28;98001;-81
2023/10/28 04:08:59;;;;;;;7.32;4.40;;;;;;;12.10;nan;98476.84;4937686;28;96570;-77
2023/10/28 04:11:25;;;;;;;5.68;3.72;;;;;;;12.20;nan;98488.41;4955234;28;96829;-77
2023/10/28 04:13:51;;;;;;;6.63;4.10;;;;;;;12.23;nan;98486.41;4921019;28;101090;-77
2023/10/28 04:16:17;;;;;;;7.28;4.47;;;;;;;12.28;nan;98494.00;4937512;28;101163;-78
2023/10/28 04:18:43;;;;;;;5.07;3.47;;;;;;;12.28;nan;98494.00;4921076;28;96556;-77
2023/10/28 04:21:09;;;;;;;7.50;4.10;;;;;;;12.28;nan;98498.41;4953649;28;96596;-77
2023/10/28 04:23:34;;;;;;;4.38;3.58;;;;;;;12.23;nan;98504.00;4954293;28;97525;-76
2023/10/28 04:26:00;;;;;;;8.40;4.40;;;;;;;12.25;nan;98512.63;4936937;28;101344;-76
2023/10/28 04:28:25;;;;;;;7.57;3.80;;;;;;;12.16;nan;98500.94;4937149;28;96620;-76
2023/10/28 04:30:58;;;;;;;7.40;4.53;;;;;;;12.03;nan;98508.00;4937185;28;96826;-76
2023/10/28 04:33:27;;;;;;;5.72;3.70;;;;;;;11.85;nan;98502.22;4953204;28;98204;-76
2023/10/28 04:35:53;;;;;;;10.50;4.35;;;;;;;11.89;nan;98510.72;4920802;28;101543;-78
2023/10/28 04:38:19;;;;;;;7.03;3.92;;;;;;;11.95;nan;98513.75;4937528;28;96589;-76
2023/10/28 04:40:45;;;;;;;5.63;3.97;;;;;;;12.07;nan;98516.50;4937587;28;96839;-76
2023/10/28 04:43:11;;;;;;;5.90;4.03;;;;;;;12.08;nan;98510.31;4920692;28;99979;-76
2023/10/28 04:45:41;;;;;;;12.32;4.38;;;;;;;12.09;nan;98515.47;4936901;28;97214;-76
2023/10/28 04:48:09;;;;;;;7.93;4.38;;;;;;;12.10;nan;98514.53;4936767;28;96595;-79
2023/10/28 04:50:34;;;;;;;8.95;4.28;;;;;;;12.16;nan;98522.00;4937607;28;96865;-76
2023/10/28 04:53:01;;;;;;;6.40;3.90;;;;;;;12.10;nan;98511.03;4937395;28;97534;-78
2023/10/28 04:55:26;;;;;;;5.50;3.65;;;;;;;12.19;nan;98519.16;4936663;28;101642;-77
2023/10/28 04:57:52;;;;;;;8.02;3.47;;;;;;;12.14;nan;98523.03;4937166;28;96640;-76
2023/10/28 05:00:19;;;;;;;5.38;3.10;;;;;;;12.18;nan;98529.75;4937433;28;96908;-78
2023/10/28 05:02:45;;;;;;;5.50;2.67;;;;;;;12.09;nan;98510.19;4936637;28;101393;-76
2023/10/28 05:05:10;;;;;;;6.28;3.53;;;;;;;12.13;nan;98521.34;4937034;28;100870;-76
2023/10/28 05:07:36;;;;;;;5.00;3.40;;;;;;;12.07;nan;98517.38;4937257;28;96590;-76
2023/10/28 05:10:03;;;;;;;4.30;2.78;;;;;;;12.17;nan;98543.88;4920550;28;96909;-76
2023/10/28 05:12:28;;;;;;;5.60;3.05;;;;;;;12.17;nan;98536.81;4920008;28;101266;-76
2023/10/28 05:14:54;;;;;;;4.60;3.13;;;;;;;12.18;nan;98540.28;4936889;28;98280;-77
2023/10/28 05:17:20;;;;;;;5.03;3.22;;;;;;;12.09;nan;98522.50;4920753;28;97077;-77
2023/10/28 05:19:46;;;;;;;3.42;2.90;;;;;;;12.16;nan;98542.19;4937379;28;96542;-76
2023/10/28 05:22:12;;;;;;;6.45;3.67;;;;;;;12.12;nan;98528.41;4920269;28;101306;-76
2023/10/28 05:24:37;;;;;;;5.65;3.20;;;;;;;12.15;nan;98549.22;4920620;28;97361;-78
2023/10/28 05:27:03;;;;;;;3.88;3.03;;;;;;;12.06;nan;98538.50;4954447;28;96533;-77
2023/10/28 05:29:29;;;;;;;7.53;3.13;;;;;;;12.10;nan;98546.09;4953801;28;96835;-77
2023/10/28 05:31:56;;;;;;;5.28;3.15;;;;;;;11.98;nan;98550.41;4921447;28;102099;-76
2023/10/28 05:34:23;;;;;;;8.23;3.13;;;;;;;11.93;nan;98539.34;4939139;28;100559;-76
2023/10/28 05:36:50;;;;;;;8.20;3.38;;;;;;;12.03;nan;98552.69;4923388;28;96630;-77
2023/10/28 05:39:16;;;;;;;4.13;3.20;;;;;;;12.03;nan;98549.22;4923858;28;96890;-77
2023/10/28 05:41:42;;;;;;;4.57;3.15;;;;;;;12.04;nan;98558.78;4923100;28;101294;-76
2023/10/28 05:44:07;;;;;;;7.63;2.80;;;;;;;12.08;nan;98557.66;4938962;28;101076;-79
2023/10/28 05:46:33;;;;;;;5.55;3.08;;;;;;;12.04;nan;98564.06;4923616;28;96621;-79
2023/10/28 05:49:00;;;;;;;4.70;2.97;;;;;;;12.05;nan;98568.38;4939785;28;96945;-77
2023/10/28 05:51:25;;;;;;;8.25;2.40;;;;;;;12.08;nan;98571.66;4939322;28;101538;-76
2023/10/28 05:53:51;;;;;;;4.38;2.53;;;;;;;12.07;nan;98572.59;4939632;28;101367;-76
2023/10/28 05:56:17;;;;;;;4.70;2.85;;;;;;;12.04;nan;98562.25;4939508;28;96749;-77
2023/10/28 05:58:43;;;;;;;6.07;2.90;;;;;;;12.11;nan;98581.13;4939515;28;96964;-77
2023/10/28 06:01:09;;;;;;;4.70;2.78;;;;;;;12.03;nan;98554.50;4938949;28;97505;-77
2023/10/28 06:03:34;;;;;;;5.47;2.70;;;;;;;12.12;nan;98567.00;4939024;28;101899;-76
2023/10/28 06:06:00;;;;;;;16.60;3.70;;;;;;;12.15;nan;98575.53;4939464;28;96577;-76
2023/10/28 06:08:26;;;;;;;5.43;3.50;;;;;;;12.13;nan;98577.44;4939619;28;96585;-76
2023/10/28 06:10:52;;;;;;;9.80;3.80;;;;;;;12.13;nan;98585.34;4939391;28;97267;-76
2023/10/28 06:13:18;;;;;;;4.28;2.88;;;;;;;12.01;nan;98554.56;4922876;28;101580;-76
2023/10/28 06:15:44;;;;;;;5.50;2.70;;;;;;;12.19;nan;98589.34;4939394;28;96596;-77
2023/10/28 06:18:11;;;;;;;8.00;2.90;;;;;;;12.21;nan;98592.69;4939606;28;96913;-77
2023/10/28 06:20:37;;;;;;;6.25;3.45;;;;;;;12.16;nan;98589.53;4938903;28;101532;-77
2023/10/28 06:23:06;;;;;;;3.92;2.60;;;;;;;12.19;nan;98600.69;4922893;28;97403;-76
2023/10/28 06:25:34;;;;;;;10.85;3.15;;;;;;;12.23;nan;98604.78;4922833;28;96728;-76
2023/10/28 06:28:00;;;;;;;3.85;2.72;;;;;;;12.22;nan;98610.16;4955445;28;96809;-77
2023/10/28 06:30:26;;;;;;;5.47;3.50;;;;;;;12.21;nan;98603.19;4955504;28;97183;-77
2023/10/28 06:32:51;;;;;;;4.25;3.13;;;;;;;12.30;nan;98618.34;4938725;28;97482;-77
2023/10/28 06:35:17;;;;;;;5.10;3.38;;;;;;;12.15;nan;98614.97;4922475;28;96693;-76
2023/10/28 06:37:42;;;;;;;6.80;3.00;;;;;;;12.24;nan;98616.97;4938802;28;96947;-77
2023/10/28 06:40:09;;;;;;;6.03;3.08;;;;;;;12.21;nan;98642.66;4922602;28;97861;-77
2023/10/28 06:42:36;;;;;;;5.15;2.47;;;;;;;12.24;nan;98635.41;4938079;28;101232;-76
2023/10/28 06:45:02;;;;;;;5.25;3.08;;;;;;;12.22;nan;98631.22;4906528;28;96802;-76
2023/10/28 06:47:29;;;;;;;8.35;2.83;;;;;;;12.38;nan;98621.31;4938841;28;96915;-75
2023/10/28 06:49:54;;;;;;;5.07;3.08;;;;;;;12.57;nan;98630.59;4954666;28;97461;-76
2023/10/28 06:52:22;;;;;;;5.18;2.78;;;;;;;12.64;nan;98645.00;4938408;28;100957;-76
2023/10/28 06:54:47;;;;;;;8.25;3.10;;;;;;;12.78;nan;98654.59;4938447;28;96548;-76
2023/10/28 06:57:13;;;;;;;5.22;2.83;;;;;;;13.24;nan;98649.56;4939115;28;96622;-76
2023/10/28 06:59:39;;;;;;;6.35;3.70;;;;;;;13.65;nan;98652.84;4938220;28;101176;-79
2023/10/28 07:02:04;;;;;;;7.35;2.75;;;;;;;13.99;nan;98651.16;4938323;28;97871;-77
2023/10/28 07:04:31;;;;;;;4.95;2.85;;;;;;;14.24;nan;98653.66;4938524;28;96578;-76
2023/10/28 07:06:57;;;;;;;8.30;3.15;;;;;;;14.55;nan;98654.00;4923176;28;96536;-76
2023/10/28 07:09:22;;;;;;;3.92;2.55;;;;;;;14.87;nan;98646.22;4938395;28;97800;-78
2023/10/28 07:11:48;;;;;;;3.35;2.30;;;;;;;15.09;nan;98644.53;4954380;28;97446;-75
2023/10/28 07:14:13;;;;;;;4.90;2.50;;;;;;;15.26;nan;98627.34;4905775;28;96680;-75
2023/10/28 07:16:41;;;;;;;4.50;2.20;;;;;;;15.70;nan;98657.31;4938122;28;96894;-78
2023/10/28 07:19:07;;;;;;;4.90;2.47;;;;;;;15.92;nan;98645.81;4938328;28;98077;-78
2023/10/28 07:21:32;;;;;;;6.10;2.20;;;;;;;16.25;nan;98658.06;4937718;28;101336;-75
2023/10/28 07:23:58;;;;;;;3.40;1.80;;;;;;;16.48;nan;98661.41;4938324;28;96576;-76
2023/10/28 07:26:26;;;;;;;2.92;2.00;;;;;;;16.80;nan;98657.88;4937957;28;96661;-86
2023/10/28 07:28:51;;;;;;;3.03;2.00;;;;;;;17.07;nan;98662.56;4938849;28;98077;-84
2023/10/28 07:31:17;;;;;;;4.28;2.15;;;;;;;17.42;nan;98672.75;4938276;28;100034;-86
2023/10/28 07:33:43;;;;;;;2.80;1.80;;;;;;;17.77;nan;98668.75;4939101;28;96612;-86
2023/10/28 07:36:08;;;;;;;4.38;1.80;;;;;;;17.94;nan;98668.13;4938116;28;96554;-86
2023/10/28 07:38:34;;;;;;;3.08;1.77;;;;;;;18.31;nan;98675.38;4921418;28;101451;-86
2023/10/28 07:41:00;;;;;;;2.63;1.70;;;;;;;18.71;nan;98685.81;4938424;28;97990;-87
2023/10/28 07:43:26;;;;;;;5.30;1.98;;;;;;;19.15;nan;98683.47;4937968;28;96634;-86
2023/10/28 07:45:52;;;;;;;7.00;2.15;;;;;;;19.63;nan;98674.41;4934819;28;96825;-85
2023/10/28 07:48:18;;;;;;;5.70;1.60;;;;;;;19.86;nan;98676.66;4918708;28;98021;-78
2023/10/28 07:50:43;;;;;;;3.67;1.80;;;;;;;20.41;nan;98684.47;4934331;28;97613;-78
2023/10/28 07:53:09;;;;;;;4.15;1.80;;;;;;;20.96;nan;98678.88;4918197;28;96600;-79
2023/10/28 07:55:36;;;;;;;5.90;1.55;;;;;;;21.39;nan;98676.28;4935313;28;96790;-83
2023/10/28 07:58:02;;;;;;;5.85;1.90;;;;;;;20.72;nan;98692.06;4902247;28;101221;-85
2023/10/28 08:00:29;;;;;;;4.22;1.75;;;;;;;19.87;nan;98689.00;4934253;28;101290;-82
2023/10/28 08:02:54;;;;;;;2.15;1.42;;;;;;;19.03;nan;98687.28;4950119;28;96594;-83
2023/10/28 08:05:20;;;;;;;2.58;1.60;;;;;;;18.93;nan;98713.06;4918868;28;96850;-81
2023/10/28 08:07:46;;;;;;;5.22;1.70;;;;;;;18.83;nan;98712.25;4934091;28;101312;-80
2023/10/28 08:10:12;;;;;;;2.05;1.30;;;;;;;18.54;nan;98710.47;4934522;28;97356;-81
2023/10/28 08:12:39;;;;;;;4.32;1.70;;;;;;;18.32;nan;98707.13;4917818;28;96627;-79
2023/10/28 08:15:07;;;;;;;5.93;1.67;;;;;;;18.13;nan;98722.22;4934185;28;96884;-80
2023/10/28 08:17:34;;;;;;;3.83;1.45;;;;;;;17.97;nan;98710.31;4917982;28;98116;-81
2023/10/28 08:19:59;;;;;;;3.45;2.00;;;;;;;19.81;nan;98724.19;4917794;28;100922;-81
2023/10/28 08:22:25;;;;;;;4.55;1.63;;;;;;;19.29;nan;98727.38;4917890;28;96642;-82
2023/10/28 08:24:51;;;;;;;2.97;1.55;;;;;;;18.97;nan;98736.56;4933772;28;96886;-80
2023/10/28 08:27:17;;;;;;;9.13;2.03;;;;;;;18.56;nan;98735.06;4933474;28;97408;-83
2023/10/28 08:29:45;;;;;;;5.85;1.88;;;;;;;18.08;nan;98730.59;4950122;28;97930;-85
2023/10/28 08:32:10;;;;;;;3.45;1.80;;;;;;;17.78;nan;98729.72;4933792;28;96726;-84
2023/10/28 08:34:36;;;;;;;7.82;1.83;;;;;;;17.78;nan;98740.31;4949985;28;96500;-84
2023/10/28 08:37:03;;;;;;;3.15;1.35;;;;;;;17.77;nan;98743.06;4933752;28;98157;-85
2023/10/28 08:39:29;;;;;;;4.13;1.38;;;;;;;17.56;nan;98717.47;4917523;28;101451;-83
2023/10/28 08:41:56;;;;;;;4.57;1.75;;;;;;;17.53;nan;98716.91;4933360;28;96517;-83
2023/10/28 08:44:27;;;;;;;5.72;1.80;;;;;;;17.63;nan;98734.53;4917119;28;96840;-83
2023/10/28 08:46:56;;;;;;;13.02;2.75;;;;;;;17.59;nan;98725.16;4933514;28;99943;-83
2023/10/28 08:49:23;;;;;;;3.90;1.30;;;;;;;17.46;nan;98705.16;4917650;28;101737;-87
2023/10/28 08:51:54;;;;;;;7.63;1.70;;;;;;;17.37;nan;98728.84;4933673;28;96628;-87
2023/10/28 08:54:21;;;;;;;3.00;1.52;;;;;;;17.02;nan;98729.25;4902609;28;96781;-87
2023/10/28 08:56:47;;;;;;;3.80;1.67;;;;;;;16.80;nan;98717.00;4918041;28;98397;-84
2023/10/28 08:59:12;;;;;;;2.15;1.45;;;;;;;16.96;nan;98746.53;4917354;28;101441;-86
2023/10/28 09:01:39;;;;;;;3.85;1.88;;;;;;;16.59;nan;98727.56;4917688;28;96597;-87
2023/10/28 09:04:05;;;;;;;4.63;1.70;;;;;;;16.77;nan;98729.66;4934400;28;96893;-86
2023/10/28 09:06:32;;;;;;;4.07;2.22;;;;;;;16.80;nan;98750.59;4919818;28;101323;-87
2023/10/28 09:08:58;;;;;;;4.43;1.60;;;;;;;16.61;nan;98727.41;4938605;28;98475;-90
2023/10/28 09:11:25;;;;;;;7.78;1.55;;;;;;;16.75;nan;98735.06;4922334;28;96663;-91
2023/10/28 09:13:51;;;;;;;3.75;1.50;;;;;;;17.18;nan;98757.94;4921857;28;97051;-87
2023/10/28 09:16:17;;;;;;;2.70;1.70;;;;;;;17.43;nan;98754.00;4921471;28;98181;-96
2023/10/28 09:18:44;;;;;;;2.78;1.58;;;;;;;17.34;nan;98736.25;4922845;28;101573;-93
2023/10/28 09:21:10;;;;;;;5.07;2.13;;;;;;;17.43;nan;98764.63;4922102;28;96552;-94
2023/10/28 09:23:36;;;;;;;3.75;1.27;;;;;;;17.64;nan;98772.50;4922224;28;97055;-92
2023/10/28 09:26:02;;;;;;;5.57;1.40;;;;;;;18.94;nan;98766.09;4938612;28;98500;-94
2023/10/28 09:28:28;;;;;;;4.78;1.80;;;;;;;19.29;nan;98767.28;4922028;28;101050;-92
2023/10/28 09:30:54;;;;;;;3.53;1.63;;;;;;;18.51;nan;98763.88;4938185;28;96587;-94
2023/10/28 09:33:22;;;;;;;2.88;1.40;;;;;;;17.81;nan;98747.19;4938789;28;96914;-89
2023/10/28 09:35:53;;;;;;;3.70;1.80;;;;;;;17.95;nan;98760.06;4938514;28;100709;-94
2023/10/28 09:38:19;;;;;;;1.52;1.05;;;;;;;17.82;nan;98780.69;4938963;28;99803;-92
2023/10/28 09:40:46;;;;;;;6.32;1.70;;;;;;;17.65;nan;98751.13;4938725;28;96585;-91
2023/10/28 09:43:14;;;;;;;3.75;1.67;;;;;;;17.55;nan;98754.75;4923046;28;96883;-92
2023/10/28 09:45:41;;;;;;;1.58;1.00;;;;;;;17.33;nan;98734.56;4921833;28;100162;-92
2023/10/28 09:48:13;;;;;;;6.47;1.35;;;;;;;17.32;nan;98770.84;4922217;28;101288;-93
2023/10/28 09:50:50;;;;;;;2.15;1.08;;;;;;;17.15;nan;98759.03;4922922;28;96589;-93
2023/10/28 09:53:17;;;;;;;3.30;1.30;;;;;;;16.92;nan;98750.41;4923507;28;96664;-91
2023/10/28 09:55:44;;;;;;;2.42;1.00;;;;;;;16.94;nan;98772.31;4921756;28;101460;-93
2023/10/28 09:58:17;;;;;;;5.05;1.33;;;;;;;16.75;nan;98753.59;4922297;28;100112;-93
2023/10/28 10:00:44;;;;;;;1.50;0.90;;;;;;;16.70;nan;98769.91;4923258;28;96723;-93
2023/10/28 10:03:20;;;;;;;6.07;1.40;;;;;;;16.62;nan;98748.50;4942987;28;96860;-93
2023/10/28 10:05:46;;;;;;;2.80;1.33;;;;;;;16.86;nan;98792.47;4937727;28;101231;-92
2023/10/28 10:08:22;;;;;;;2.15;0.88;;;;;;;16.73;nan;98792.66;4938133;28;101311;-92
2023/10/28 10:10:57;;;;;;;2.00;1.40;;;;;;;16.71;nan;98799.88;4939977;28;96576;-92
2023/10/28 10:13:23;;;;;;;3.90;1.70;;;;;;;16.64;nan;98782.78;4922657;28;96886;-92
2023/10/28 10:15:53;;;;;;;5.97;2.03;;;;;;;16.63;nan;98774.00;4921512;28;98558;-92
2023/10/28 10:18:27;;;;;;;1.95;1.00;;;;;;;16.58;nan;98765.63;4920922;28;101644;-91
2023/10/28 10:21:04;;;;;;;2.22;1.33;;;;;;;16.55;nan;98752.66;4922610;28;96617;-92
2023/10/28 10:23:43;;;;;;;1.42;1.08;;;;;;;16.57;nan;98771.03;4927038;28;96564;-93
2023/10/28 10:26:24;;;;;;;2.95;0.93;;;;;;;16.57;nan;98753.34;4940726;28;97040;-91
2023/10/28 10:28:55;;;;;;;1.15;0.93;;;;;;;16.60;nan;98768.13;4940469;28;98146;-93
2023/10/28 10:31:32;;;;;;;1.33;0.88;;;;;;;16.58;nan;98783.31;4923763;28;97012;-90
2023/10/28 10:34:08;;;;;;;2.00;0.80;;;;;;;16.63;nan;98751.97;4937670;28;96682;-93
2023/10/28 10:36:40;;;;;;;2.45;0.90;;;;;;;16.79;nan;98763.03;4921369;28;101927;-88
2023/10/28 10:39:18;;;;;;;2.47;1.23;;;;;;;17.02;nan;98770.84;4938366;28;101175;-87
2023/10/28 10:41:49;;;;;;;1.77;1.15;;;;;;;17.17;nan;98778.31;4920525;28;96751;-87
2023/10/28 10:44:47;;;;;;;4.35;1.73;;;;;;;17.28;nan;98808.34;4936531;28;96736;-88
2023/10/28 10:47:17;;;;;;;3.92;1.38;;;;;;;17.04;nan;98798.88;4874649;28;102017;-89
2023/10/28 10:49:43;;;;;;;2.97;1.10;;;;;;;16.97;nan;98810.97;4921717;28;98564;-89
2023/10/28 10:52:09;;;;;;;5.85;1.10;;;;;;;16.79;nan;98799.28;4937204;28;96662;-90
2023/10/28 10:54:40;;;;;;;1.13;0.80;;;;;;;16.44;nan;98776.53;4921640;28;97038;-91
2023/10/28 10:57:08;;;;;;;3.25;0.88;;;;;;;16.64;nan;98815.44;4920454;28;98662;-90
2023/10/28 10:59:38;;;;;;;3.38;1.20;;;;;;;16.70;nan;98824.69;4920651;28;101061;-93
2023/10/28 11:02:03;;;;;;;3.17;1.92;;;;;;;16.58;nan;98805.38;4921881;28;96686;-91
2023/10/28 11:04:36;;;;;;;4.72;1.85;;;;;;;16.64;nan;98807.50;4920214;28;96840;-92
2023/10/28 11:07:05;;;;;;;1.70;1.35;;;;;;;16.42;nan;98774.00;4922136;28;101212;-92
2023/10/28 11:09:32;;;;;;;2.85;1.20;;;;;;;16.42;nan;98774.00;4936034;28;97869;-81
2023/10/28 11:11:58;;;;;;;2.15;1.25;;;;;;;16.72;nan;98809.50;4920393;28;96625;-85
2023/10/28 11:14:24;;;;;;;3.50;1.02;;;;;;;16.64;nan;98818.09;4920578;28;97046;-91
2023/10/28 11:16:50;;;;;;;1.38;0.80;;;;;;;16.61;nan;98815.72;4920198;28;101224;-91
2023/10/28 11:19:18;;;;;;;2.17;1.15;;;;;;;16.53;nan;98807.53;4920345;28;100036;-90
2023/10/28 11:21:44;;;;;;;2.60;0.98;;;;;;;16.55;nan;98807.41;4935973;28;96502;-91
2023/10/28 11:24:14;;;;;;;2.42;0.98;;;;;;;16.37;nan;98800.00;4936470;28;96553;-88
2023/10/28 11:26:39;;;;;;;4.30;1.10;;;;;;;16.51;nan;98801.53;4920137;28;101500;-90
2023/10/28 11:29:06;;;;;;;2.25;1.17;;;;;;;16.48;nan;98807.06;4936774;28;98396;-89
2023/10/28 11:31:33;;;;;;;1.98;1.05;;;;;;;16.46;nan;98814.28;4920037;28;96687;-90
2023/10/28 11:34:00;;;;;;;2.03;0.95;;;;;;;16.60;nan;98826.41;4920105;28;96837;-95
2023/10/28 11:36:26;;;;;;;1.80;0.98;;;;;;;16.50;nan;98827.19;4936082;28;100313;-92
2023/10/28 11:38:54;;;;;;;3.45;0.90;;;;;;;16.43;nan;98833.09;4920861;28;96849;-92
2023/10/28 11:41:20;;;;;;;1.23;0.90;;;;;;;16.18;nan;98832.44;4937422;28;96667;-90
2023/10/28 11:43:50;;;;;;;1.92;1.27;;;;;;;16.06;nan;98810.44;4920447;28;96934;-91